sensor_id;sensor_type;location;lat;lon;timestamp;P1;durP1;ratioP1;P2;durP2;ratioP2
33270;SDS011;53180;51.344;6.152;2022-09-13T00:01:06;3.60;;;2.50;;
33270;SDS011;53180;51.344;6.152;2022-09-13T00:03:36;3.53;;;2.30;;
33270;SDS011;53180;51.344;6.152;2022-09-13T00:06:08;3.22;;;2.20;;
33270;SDS011;53180;51.344;6.152;2022-09-13T00:08:39;4.15;;;2.72;;
33270;SDS011;53180;51.344;6.152;2022-09-13T00:11:12;2.92;;;1.98;;
33270;SDS011;53180;51.344;6.152;2022-09-13T00:13:43;3.28;;;2.08;;
33270;SDS011;53180;51.344;6.152;2022-09-13T00:16:12;3.70;;;2.47;;
33270;SDS011;53180;51.344;6.152;2022-09-13T00:18:45;3.05;;;2.17;;
33270;SDS011;53180;51.344;6.152;2022-09-13T00:21:14;3.35;;;2.30;;
33270;SDS011;53180;51.344;6.152;2022-09-13T00:23:45;3.75;;;2.53;;
33270;SDS011;53180;51.344;6.152;2022-09-13T00:26:17;4.50;;;2.75;;
33270;SDS011;53180;51.344;6.152;2022-09-13T00:28:48;3.83;;;2.63;;
33270;SDS011;53180;51.344;6.152;2022-09-13T00:31:18;5.35;;;2.63;;
33270;SDS011;53180;51.344;6.152;2022-09-13T00:33:50;3.95;;;2.55;;
33270;SDS011;53180;51.344;6.152;2022-09-13T00:36:18;6.80;;;2.30;;
33270;SDS011;53180;51.344;6.152;2022-09-13T00:38:46;4.35;;;2.60;;
33270;SDS011;53180;51.344;6.152;2022-09-13T00:41:16;3.58;;;2.53;;
33270;SDS011;53180;51.344;6.152;2022-09-13T00:43:47;3.78;;;2.22;;
33270;SDS011;53180;51.344;6.152;2022-09-13T00:46:22;3.47;;;2.47;;
33270;SDS011;53180;51.344;6.152;2022-09-13T00:49:01;4.22;;;2.72;;
33270;SDS011;53180;51.344;6.152;2022-09-13T00:51:38;2.20;;;1.77;;
33270;SDS011;53180;51.344;6.152;2022-09-13T00:54:13;3.92;;;2.25;;
33270;SDS011;53180;51.344;6.152;2022-09-13T00:56:44;4.40;;;2.75;;
33270;SDS011;53180;51.344;6.152;2022-09-13T00:59:18;4.30;;;2.45;;
33270;SDS011;53180;51.344;6.152;2022-09-13T01:01:52;2.65;;;2.22;;
33270;SDS011;53180;51.344;6.152;2022-09-13T01:04:25;3.95;;;2.67;;
33270;SDS011;53180;51.344;6.152;2022-09-13T01:06:56;5.57;;;1.90;;
33270;SDS011;53180;51.344;6.152;2022-09-13T01:09:29;4.35;;;2.33;;
33270;SDS011;53180;51.344;6.152;2022-09-13T01:12:02;4.03;;;2.65;;
33270;SDS011;53180;51.344;6.152;2022-09-13T01:14:35;3.67;;;2.42;;
33270;SDS011;53180;51.344;6.152;2022-09-13T01:17:05;7.60;;;2.13;;
33270;SDS011;53180;51.344;6.152;2022-09-13T01:19:35;3.85;;;2.40;;
33270;SDS011;53180;51.344;6.152;2022-09-13T01:22:13;4.55;;;2.80;;
33270;SDS011;53180;51.344;6.152;2022-09-13T01:25:37;5.28;;;2.78;;
33270;SDS011;53180;51.344;6.152;2022-09-13T01:28:57;3.67;;;2.40;;
33270;SDS011;53180;51.344;6.152;2022-09-13T01:32:25;3.00;;;2.33;;
33270;SDS011;53180;51.344;6.152;2022-09-13T01:35:07;4.35;;;2.60;;
33270;SDS011;53180;51.344;6.152;2022-09-13T01:37:45;4.03;;;2.55;;
33270;SDS011;53180;51.344;6.152;2022-09-13T01:40:28;4.13;;;2.75;;
33270;SDS011;53180;51.344;6.152;2022-09-13T01:43:18;4.95;;;2.42;;
33270;SDS011;53180;51.344;6.152;2022-09-13T01:46:01;4.22;;;2.55;;
33270;SDS011;53180;51.344;6.152;2022-09-13T01:48:35;4.13;;;2.33;;
33270;SDS011;53180;51.344;6.152;2022-09-13T01:51:22;3.72;;;2.20;;
33270;SDS011;53180;51.344;6.152;2022-09-13T01:53:57;2.67;;;1.98;;
33270;SDS011;53180;51.344;6.152;2022-09-13T01:56:40;4.03;;;2.38;;
33270;SDS011;53180;51.344;6.152;2022-09-13T01:59:19;3.83;;;2.20;;
33270;SDS011;53180;51.344;6.152;2022-09-13T02:01:58;4.55;;;2.30;;
33270;SDS011;53180;51.344;6.152;2022-09-13T02:04:34;3.28;;;2.13;;
33270;SDS011;53180;51.344;6.152;2022-09-13T02:07:07;5.30;;;2.70;;
33270;SDS011;53180;51.344;6.152;2022-09-13T02:09:41;2.85;;;2.17;;
33270;SDS011;53180;51.344;6.152;2022-09-13T02:12:14;3.22;;;2.13;;
33270;SDS011;53180;51.344;6.152;2022-09-13T02:14:47;4.45;;;1.98;;
33270;SDS011;53180;51.344;6.152;2022-09-13T02:17:23;3.38;;;2.35;;
33270;SDS011;53180;51.344;6.152;2022-09-13T02:19:58;2.83;;;2.00;;
33270;SDS011;53180;51.344;6.152;2022-09-13T02:22:31;6.03;;;2.22;;
33270;SDS011;53180;51.344;6.152;2022-09-13T02:25:04;3.00;;;1.92;;
33270;SDS011;53180;51.344;6.152;2022-09-13T02:27:36;3.45;;;1.80;;
33270;SDS011;53180;51.344;6.152;2022-09-13T02:30:11;2.28;;;1.65;;
33270;SDS011;53180;51.344;6.152;2022-09-13T02:32:41;3.63;;;1.97;;
33270;SDS011;53180;51.344;6.152;2022-09-13T02:35:18;6.55;;;2.10;;
33270;SDS011;53180;51.344;6.152;2022-09-13T02:37:52;3.40;;;1.85;;
33270;SDS011;53180;51.344;6.152;2022-09-13T02:40:28;8.90;;;2.30;;
33270;SDS011;53180;51.344;6.152;2022-09-13T02:43:03;2.65;;;1.98;;
33270;SDS011;53180;51.344;6.152;2022-09-13T02:45:39;2.85;;;2.08;;
33270;SDS011;53180;51.344;6.152;2022-09-13T02:48:14;2.65;;;1.63;;
33270;SDS011;53180;51.344;6.152;2022-09-13T02:50:52;4.38;;;2.00;;
33270;SDS011;53180;51.344;6.152;2022-09-13T02:53:31;2.78;;;2.03;;
33270;SDS011;53180;51.344;6.152;2022-09-13T02:56:10;2.67;;;2.00;;
33270;SDS011;53180;51.344;6.152;2022-09-13T02:58:51;5.40;;;2.35;;
33270;SDS011;53180;51.344;6.152;2022-09-13T03:01:27;5.90;;;2.55;;
33270;SDS011;53180;51.344;6.152;2022-09-13T03:03:55;4.65;;;2.28;;
33270;SDS011;53180;51.344;6.152;2022-09-13T03:06:25;4.05;;;2.17;;
33270;SDS011;53180;51.344;6.152;2022-09-13T03:08:56;2.97;;;2.05;;
33270;SDS011;53180;51.344;6.152;2022-09-13T03:11:30;5.43;;;2.33;;
33270;SDS011;53180;51.344;6.152;2022-09-13T03:14:17;3.10;;;2.05;;
33270;SDS011;53180;51.344;6.152;2022-09-13T03:16:59;2.67;;;2.03;;
33270;SDS011;53180;51.344;6.152;2022-09-13T03:22:51;2.78;;;1.92;;
33270;SDS011;53180;51.344;6.152;2022-09-13T03:26:18;2.53;;;2.03;;
33270;SDS011;53180;51.344;6.152;2022-09-13T03:29:01;4.45;;;2.33;;
33270;SDS011;53180;51.344;6.152;2022-09-13T03:31:51;7.13;;;2.10;;
33270;SDS011;53180;51.344;6.152;2022-09-13T03:34:39;6.15;;;2.42;;
33270;SDS011;53180;51.344;6.152;2022-09-13T03:37:16;6.72;;;2.35;;
33270;SDS011;53180;51.344;6.152;2022-09-13T03:39:55;8.77;;;2.58;;
33270;SDS011;53180;51.344;6.152;2022-09-13T03:42:28;4.90;;;2.70;;
33270;SDS011;53180;51.344;6.152;2022-09-13T03:45:02;3.15;;;2.20;;
33270;SDS011;53180;51.344;6.152;2022-09-13T03:47:33;3.45;;;2.38;;
33270;SDS011;53180;51.344;6.152;2022-09-13T03:52:34;3.78;;;2.42;;
33270;SDS011;53180;51.344;6.152;2022-09-13T03:55:08;3.58;;;2.47;;
33270;SDS011;53180;51.344;6.152;2022-09-13T03:57:36;3.05;;;2.05;;
33270;SDS011;53180;51.344;6.152;2022-09-13T04:00:05;3.72;;;2.20;;
33270;SDS011;53180;51.344;6.152;2022-09-13T04:02:34;5.10;;;2.30;;
33270;SDS011;53180;51.344;6.152;2022-09-13T04:05:03;2.70;;;1.80;;
33270;SDS011;53180;51.344;6.152;2022-09-13T04:07:32;2.83;;;2.03;;
33270;SDS011;53180;51.344;6.152;2022-09-13T04:10:00;4.20;;;2.50;;
33270;SDS011;53180;51.344;6.152;2022-09-13T04:12:30;2.97;;;2.00;;
33270;SDS011;53180;51.344;6.152;2022-09-13T04:14:58;2.25;;;1.77;;
33270;SDS011;53180;51.344;6.152;2022-09-13T04:17:26;2.97;;;1.80;;
33270;SDS011;53180;51.344;6.152;2022-09-13T04:19:55;3.53;;;1.88;;
33270;SDS011;53180;51.344;6.152;2022-09-13T04:22:23;3.97;;;2.08;;
33270;SDS011;53180;51.344;6.152;2022-09-13T04:24:51;3.33;;;2.45;;
33270;SDS011;53180;51.344;6.152;2022-09-13T04:27:25;2.85;;;1.70;;
33270;SDS011;53180;51.344;6.152;2022-09-13T04:29:55;3.55;;;2.40;;
33270;SDS011;53180;51.344;6.152;2022-09-13T04:32:23;3.85;;;2.25;;
33270;SDS011;53180;51.344;6.152;2022-09-13T04:34:51;4.45;;;2.17;;
33270;SDS011;53180;51.344;6.152;2022-09-13T04:37:20;4.85;;;1.83;;
33270;SDS011;53180;51.344;6.152;2022-09-13T04:39:48;2.95;;;1.92;;
33270;SDS011;53180;51.344;6.152;2022-09-13T04:42:17;8.85;;;4.05;;
33270;SDS011;53180;51.344;6.152;2022-09-13T04:44:45;6.43;;;2.67;;
33270;SDS011;53180;51.344;6.152;2022-09-13T04:47:16;6.28;;;2.10;;
33270;SDS011;53180;51.344;6.152;2022-09-13T04:49:44;2.83;;;1.83;;
33270;SDS011;53180;51.344;6.152;2022-09-13T04:52:13;4.43;;;2.22;;
33270;SDS011;53180;51.344;6.152;2022-09-13T04:54:42;3.72;;;1.95;;
33270;SDS011;53180;51.344;6.152;2022-09-13T04:57:10;2.78;;;1.80;;
33270;SDS011;53180;51.344;6.152;2022-09-13T04:59:38;2.53;;;1.98;;
33270;SDS011;53180;51.344;6.152;2022-09-13T05:02:07;2.78;;;1.90;;
33270;SDS011;53180;51.344;6.152;2022-09-13T05:04:37;3.90;;;2.08;;
33270;SDS011;53180;51.344;6.152;2022-09-13T05:07:05;3.25;;;1.90;;
33270;SDS011;53180;51.344;6.152;2022-09-13T05:09:33;2.35;;;1.45;;
33270;SDS011;53180;51.344;6.152;2022-09-13T05:12:02;3.13;;;2.03;;
33270;SDS011;53180;51.344;6.152;2022-09-13T05:14:33;3.75;;;2.10;;
33270;SDS011;53180;51.344;6.152;2022-09-13T05:17:01;3.78;;;2.28;;
33270;SDS011;53180;51.344;6.152;2022-09-13T05:19:30;2.80;;;2.00;;
33270;SDS011;53180;51.344;6.152;2022-09-13T05:22:00;3.33;;;1.95;;
33270;SDS011;53180;51.344;6.152;2022-09-13T05:24:28;2.10;;;1.38;;
33270;SDS011;53180;51.344;6.152;2022-09-13T05:26:57;1.83;;;1.45;;
33270;SDS011;53180;51.344;6.152;2022-09-13T05:29:25;2.63;;;1.60;;
33270;SDS011;53180;51.344;6.152;2022-09-13T05:31:53;4.28;;;2.13;;
33270;SDS011;53180;51.344;6.152;2022-09-13T05:34:22;2.83;;;1.70;;
33270;SDS011;53180;51.344;6.152;2022-09-13T05:36:50;2.67;;;1.90;;
33270;SDS011;53180;51.344;6.152;2022-09-13T05:39:21;3.88;;;2.05;;
33270;SDS011;53180;51.344;6.152;2022-09-13T05:42:09;2.72;;;1.67;;
33270;SDS011;53180;51.344;6.152;2022-09-13T05:44:37;3.00;;;1.83;;
33270;SDS011;53180;51.344;6.152;2022-09-13T05:47:05;4.68;;;1.80;;
33270;SDS011;53180;51.344;6.152;2022-09-13T05:49:34;2.83;;;1.60;;
33270;SDS011;53180;51.344;6.152;2022-09-13T05:52:22;2.58;;;1.70;;
33270;SDS011;53180;51.344;6.152;2022-09-13T05:54:51;4.82;;;2.17;;
33270;SDS011;53180;51.344;6.152;2022-09-13T05:57:20;3.92;;;1.92;;
33270;SDS011;53180;51.344;6.152;2022-09-13T05:59:48;4.80;;;2.10;;
33270;SDS011;53180;51.344;6.152;2022-09-13T06:02:19;2.50;;;1.63;;
33270;SDS011;53180;51.344;6.152;2022-09-13T06:04:48;4.35;;;1.83;;
33270;SDS011;53180;51.344;6.152;2022-09-13T06:07:17;5.47;;;1.98;;
33270;SDS011;53180;51.344;6.152;2022-09-13T06:09:45;4.30;;;1.95;;
33270;SDS011;53180;51.344;6.152;2022-09-13T06:12:15;2.40;;;1.60;;
33270;SDS011;53180;51.344;6.152;2022-09-13T06:14:43;2.28;;;1.50;;
33270;SDS011;53180;51.344;6.152;2022-09-13T06:17:11;3.05;;;1.52;;
33270;SDS011;53180;51.344;6.152;2022-09-13T06:19:40;3.42;;;1.80;;
33270;SDS011;53180;51.344;6.152;2022-09-13T06:22:08;2.85;;;1.77;;
33270;SDS011;53180;51.344;6.152;2022-09-13T06:24:37;5.07;;;1.98;;
33270;SDS011;53180;51.344;6.152;2022-09-13T06:27:05;5.72;;;1.73;;
33270;SDS011;53180;51.344;6.152;2022-09-13T06:29:34;2.88;;;1.90;;
33270;SDS011;53180;51.344;6.152;2022-09-13T06:32:03;3.10;;;1.90;;
33270;SDS011;53180;51.344;6.152;2022-09-13T06:34:31;2.72;;;1.90;;
33270;SDS011;53180;51.344;6.152;2022-09-13T06:37:00;4.82;;;2.53;;
33270;SDS011;53180;51.344;6.152;2022-09-13T06:39:29;4.80;;;2.45;;
33270;SDS011;53180;51.344;6.152;2022-09-13T06:41:59;3.40;;;2.40;;
33270;SDS011;53180;51.344;6.152;2022-09-13T06:44:27;3.85;;;2.00;;
33270;SDS011;53180;51.344;6.152;2022-09-13T06:46:57;3.92;;;1.90;;
33270;SDS011;53180;51.344;6.152;2022-09-13T06:49:25;4.72;;;2.03;;
33270;SDS011;53180;51.344;6.152;2022-09-13T06:51:56;6.43;;;1.92;;
33270;SDS011;53180;51.344;6.152;2022-09-13T06:54:25;3.65;;;2.33;;
33270;SDS011;53180;51.344;6.152;2022-09-13T06:56:53;3.72;;;2.30;;
33270;SDS011;53180;51.344;6.152;2022-09-13T06:59:21;4.15;;;2.10;;
33270;SDS011;53180;51.344;6.152;2022-09-13T07:01:49;3.97;;;2.42;;
33270;SDS011;53180;51.344;6.152;2022-09-13T07:04:19;4.55;;;2.53;;
33270;SDS011;53180;51.344;6.152;2022-09-13T07:06:48;6.65;;;2.38;;
33270;SDS011;53180;51.344;6.152;2022-09-13T07:09:17;4.80;;;2.05;;
33270;SDS011;53180;51.344;6.152;2022-09-13T07:11:48;3.63;;;1.95;;
33270;SDS011;53180;51.344;6.152;2022-09-13T07:14:19;4.30;;;1.95;;
33270;SDS011;53180;51.344;6.152;2022-09-13T07:16:49;3.22;;;2.08;;
33270;SDS011;53180;51.344;6.152;2022-09-13T07:19:20;3.78;;;2.25;;
33270;SDS011;53180;51.344;6.152;2022-09-13T07:21:51;3.22;;;2.20;;
33270;SDS011;53180;51.344;6.152;2022-09-13T07:24:21;4.53;;;2.20;;
33270;SDS011;53180;51.344;6.152;2022-09-13T07:26:50;5.75;;;2.45;;
33270;SDS011;53180;51.344;6.152;2022-09-13T07:29:20;9.15;;;2.72;;
33270;SDS011;53180;51.344;6.152;2022-09-13T07:31:50;4.72;;;2.58;;
33270;SDS011;53180;51.344;6.152;2022-09-13T07:34:22;5.85;;;2.47;;
33270;SDS011;53180;51.344;6.152;2022-09-13T07:36:52;3.53;;;2.33;;
33270;SDS011;53180;51.344;6.152;2022-09-13T07:39:21;4.03;;;2.58;;
33270;SDS011;53180;51.344;6.152;2022-09-13T07:41:49;3.25;;;2.35;;
33270;SDS011;53180;51.344;6.152;2022-09-13T07:44:19;6.03;;;2.58;;
33270;SDS011;53180;51.344;6.152;2022-09-13T07:46:48;7.65;;;2.65;;
33270;SDS011;53180;51.344;6.152;2022-09-13T07:49:16;5.90;;;2.65;;
33270;SDS011;53180;51.344;6.152;2022-09-13T07:51:47;4.28;;;2.58;;
33270;SDS011;53180;51.344;6.152;2022-09-13T07:54:17;3.22;;;2.55;;
33270;SDS011;53180;51.344;6.152;2022-09-13T07:56:45;3.28;;;2.05;;
33270;SDS011;53180;51.344;6.152;2022-09-13T07:59:16;4.32;;;2.72;;
33270;SDS011;53180;51.344;6.152;2022-09-13T08:01:45;5.78;;;2.78;;
33270;SDS011;53180;51.344;6.152;2022-09-13T08:04:16;4.07;;;2.70;;
33270;SDS011;53180;51.344;6.152;2022-09-13T08:06:48;3.85;;;2.28;;
33270;SDS011;53180;51.344;6.152;2022-09-13T08:09:16;5.35;;;2.40;;
33270;SDS011;53180;51.344;6.152;2022-09-13T08:11:45;4.55;;;3.10;;
33270;SDS011;53180;51.344;6.152;2022-09-13T08:14:17;3.95;;;2.70;;
33270;SDS011;53180;51.344;6.152;2022-09-13T08:16:47;4.70;;;2.75;;
33270;SDS011;53180;51.344;6.152;2022-09-13T08:19:16;4.70;;;3.35;;
33270;SDS011;53180;51.344;6.152;2022-09-13T08:21:46;4.00;;;3.00;;
33270;SDS011;53180;51.344;6.152;2022-09-13T08:24:16;4.55;;;3.20;;
33270;SDS011;53180;51.344;6.152;2022-09-13T08:26:46;5.05;;;3.83;;
33270;SDS011;53180;51.344;6.152;2022-09-13T08:31:45;5.10;;;3.42;;
33270;SDS011;53180;51.344;6.152;2022-09-13T08:34:14;7.43;;;3.90;;
33270;SDS011;53180;51.344;6.152;2022-09-13T08:36:43;6.10;;;3.95;;
33270;SDS011;53180;51.344;6.152;2022-09-13T08:39:13;5.30;;;3.55;;
33270;SDS011;53180;51.344;6.152;2022-09-13T08:44:32;5.30;;;3.70;;
33270;SDS011;53180;51.344;6.152;2022-09-13T08:47:13;6.15;;;3.65;;
33270;SDS011;53180;51.344;6.152;2022-09-13T08:49:56;5.72;;;4.20;;
33270;SDS011;53180;51.344;6.152;2022-09-13T08:52:32;7.03;;;4.47;;
33270;SDS011;53180;51.344;6.152;2022-09-13T08:55:14;5.60;;;4.20;;
33270;SDS011;53180;51.344;6.152;2022-09-13T08:57:52;5.90;;;4.28;;
33270;SDS011;53180;51.344;6.152;2022-09-13T09:00:29;9.55;;;5.13;;
33270;SDS011;53180;51.344;6.152;2022-09-13T09:03:07;10.70;;;5.07;;
33270;SDS011;53180;51.344;6.152;2022-09-13T09:05:46;5.80;;;4.55;;
33270;SDS011;53180;51.344;6.152;2022-09-13T09:10:56;6.43;;;4.75;;
33270;SDS011;53180;51.344;6.152;2022-09-13T09:13:29;6.57;;;5.28;;
33270;SDS011;53180;51.344;6.152;2022-09-13T09:16:04;8.38;;;5.00;;
33270;SDS011;53180;51.344;6.152;2022-09-13T09:18:39;8.68;;;6.13;;
33270;SDS011;53180;51.344;6.152;2022-09-13T09:21:12;13.50;;;5.38;;
33270;SDS011;53180;51.344;6.152;2022-09-13T09:23:45;7.55;;;5.75;;
33270;SDS011;53180;51.344;6.152;2022-09-13T09:26:20;10.25;;;7.43;;
33270;SDS011;53180;51.344;6.152;2022-09-13T09:31:24;7.00;;;5.53;;
33270;SDS011;53180;51.344;6.152;2022-09-13T09:34:04;6.43;;;5.40;;
33270;SDS011;53180;51.344;6.152;2022-09-13T09:36:41;6.90;;;5.68;;
33270;SDS011;53180;51.344;6.152;2022-09-13T09:39:15;7.10;;;5.57;;
33270;SDS011;53180;51.344;6.152;2022-09-13T09:41:45;6.32;;;5.72;;
33270;SDS011;53180;51.344;6.152;2022-09-13T09:44:17;9.87;;;6.73;;
33270;SDS011;53180;51.344;6.152;2022-09-13T09:46:49;8.40;;;5.32;;
33270;SDS011;53180;51.344;6.152;2022-09-13T09:49:23;8.75;;;5.72;;
33270;SDS011;53180;51.344;6.152;2022-09-13T09:52:17;7.82;;;6.75;;
33270;SDS011;53180;51.344;6.152;2022-09-13T09:54:54;7.57;;;6.78;;
33270;SDS011;53180;51.344;6.152;2022-09-13T09:57:52;7.20;;;6.50;;
33270;SDS011;53180;51.344;6.152;2022-09-13T10:00:25;7.85;;;7.15;;
33270;SDS011;53180;51.344;6.152;2022-09-13T10:02:57;9.82;;;8.80;;
33270;SDS011;53180;51.344;6.152;2022-09-13T10:05:29;8.98;;;6.78;;
33270;SDS011;53180;51.344;6.152;2022-09-13T10:07:59;7.13;;;6.32;;
33270;SDS011;53180;51.344;6.152;2022-09-13T10:13:05;7.57;;;6.82;;
33270;SDS011;53180;51.344;6.152;2022-09-13T10:15:42;9.55;;;8.57;;
33270;SDS011;53180;51.344;6.152;2022-09-13T10:18:20;6.95;;;6.20;;
33270;SDS011;53180;51.344;6.152;2022-09-13T10:21:19;12.25;;;7.85;;
33270;SDS011;53180;51.344;6.152;2022-09-13T10:23:50;9.20;;;8.27;;
33270;SDS011;53180;51.344;6.152;2022-09-13T10:26:21;11.55;;;7.35;;
33270;SDS011;53180;51.344;6.152;2022-09-13T10:29:05;8.27;;;7.47;;
33270;SDS011;53180;51.344;6.152;2022-09-13T10:31:36;8.43;;;7.70;;
33270;SDS011;53180;51.344;6.152;2022-09-13T10:34:10;9.10;;;8.35;;
33270;SDS011;53180;51.344;6.152;2022-09-13T10:36:48;9.25;;;8.50;;
33270;SDS011;53180;51.344;6.152;2022-09-13T10:39:22;9.00;;;8.30;;
33270;SDS011;53180;51.344;6.152;2022-09-13T10:41:52;7.70;;;6.95;;
33270;SDS011;53180;51.344;6.152;2022-09-13T10:44:26;13.70;;;10.45;;
33270;SDS011;53180;51.344;6.152;2022-09-13T10:47:01;12.82;;;11.82;;
33270;SDS011;53180;51.344;6.152;2022-09-13T10:49:37;15.48;;;14.38;;
33270;SDS011;53180;51.344;6.152;2022-09-13T10:52:27;13.30;;;12.30;;
33270;SDS011;53180;51.344;6.152;2022-09-13T10:55:21;16.02;;;14.82;;
33270;SDS011;53180;51.344;6.152;2022-09-13T10:58:11;11.38;;;10.27;;
33270;SDS011;53180;51.344;6.152;2022-09-13T11:01:01;15.10;;;13.77;;
33270;SDS011;53180;51.344;6.152;2022-09-13T11:03:47;11.68;;;10.80;;
33270;SDS011;53180;51.344;6.152;2022-09-13T11:06:54;20.40;;;19.00;;
33270;SDS011;53180;51.344;6.152;2022-09-13T11:09:35;11.18;;;10.25;;
33270;SDS011;53180;51.344;6.152;2022-09-13T11:12:11;6.70;;;5.28;;
33270;SDS011;53180;51.344;6.152;2022-09-13T11:14:48;12.23;;;11.23;;
33270;SDS011;53180;51.344;6.152;2022-09-13T11:17:33;16.67;;;15.45;;
33270;SDS011;53180;51.344;6.152;2022-09-13T11:20:34;7.47;;;6.78;;
33270;SDS011;53180;51.344;6.152;2022-09-13T11:23:24;6.22;;;5.63;;
33270;SDS011;53180;51.344;6.152;2022-09-13T11:26:19;7.78;;;7.00;;
33270;SDS011;53180;51.344;6.152;2022-09-13T11:29:06;7.50;;;5.90;;
33270;SDS011;53180;51.344;6.152;2022-09-13T11:31:48;6.07;;;5.47;;
33270;SDS011;53180;51.344;6.152;2022-09-13T11:34:30;24.13;;;22.52;;
33270;SDS011;53180;51.344;6.152;2022-09-13T11:43:01;6.28;;;5.68;;
33270;SDS011;53180;51.344;6.152;2022-09-13T11:45:53;7.13;;;6.32;;
33270;SDS011;53180;51.344;6.152;2022-09-13T11:48:44;8.75;;;8.05;;
33270;SDS011;53180;51.344;6.152;2022-09-13T11:51:31;7.40;;;6.47;;
33270;SDS011;53180;51.344;6.152;2022-09-13T11:54:15;8.55;;;7.82;;
33270;SDS011;53180;51.344;6.152;2022-09-13T11:57:00;7.18;;;4.47;;
33270;SDS011;53180;51.344;6.152;2022-09-13T11:59:34;5.40;;;3.80;;
33270;SDS011;53180;51.344;6.152;2022-09-13T12:02:11;5.40;;;4.35;;
33270;SDS011;53180;51.344;6.152;2022-09-13T12:04:48;4.80;;;4.30;;
33270;SDS011;53180;51.344;6.152;2022-09-13T12:07:42;7.45;;;4.10;;
33270;SDS011;53180;51.344;6.152;2022-09-13T12:10:17;5.68;;;4.55;;
33270;SDS011;53180;51.344;6.152;2022-09-13T12:12:50;6.50;;;5.90;;
33270;SDS011;53180;51.344;6.152;2022-09-13T12:15:22;9.73;;;8.85;;
33270;SDS011;53180;51.344;6.152;2022-09-13T12:18:03;12.35;;;11.20;;
33270;SDS011;53180;51.344;6.152;2022-09-13T12:20:40;10.50;;;9.70;;
33270;SDS011;53180;51.344;6.152;2022-09-13T12:23:18;7.70;;;7.00;;
33270;SDS011;53180;51.344;6.152;2022-09-13T12:25:53;5.65;;;3.88;;
33270;SDS011;53180;51.344;6.152;2022-09-13T12:28:27;6.07;;;4.35;;
33270;SDS011;53180;51.344;6.152;2022-09-13T12:31:03;6.35;;;4.80;;
33270;SDS011;53180;51.344;6.152;2022-09-13T12:33:38;16.52;;;15.32;;
33270;SDS011;53180;51.344;6.152;2022-09-13T12:36:17;7.00;;;6.07;;
33270;SDS011;53180;51.344;6.152;2022-09-13T12:45:40;32.10;;;29.98;;
33270;SDS011;53180;51.344;6.152;2022-09-13T12:48:41;44.78;;;41.88;;
33270;SDS011;53180;51.344;6.152;2022-09-13T12:51:40;28.83;;;26.83;;
33270;SDS011;53180;51.344;6.152;2022-09-13T12:54:41;40.63;;;37.90;;
33270;SDS011;53180;51.344;6.152;2022-09-13T12:58:19;19.35;;;18.00;;
33270;SDS011;53180;51.344;6.152;2022-09-13T13:01:17;42.28;;;39.28;;
33270;SDS011;53180;51.344;6.152;2022-09-13T13:03:49;36.78;;;34.38;;
33270;SDS011;53180;51.344;6.152;2022-09-13T13:06:25;36.08;;;33.72;;
33270;SDS011;53180;51.344;6.152;2022-09-13T13:08:59;30.48;;;28.33;;
33270;SDS011;53180;51.344;6.152;2022-09-13T13:11:44;20.60;;;19.17;;
33270;SDS011;53180;51.344;6.152;2022-09-13T13:14:27;25.23;;;23.52;;
33270;SDS011;53180;51.344;6.152;2022-09-13T13:23:15;26.40;;;23.95;;
33270;SDS011;53180;51.344;6.152;2022-09-13T13:25:54;22.55;;;20.77;;
33270;SDS011;53180;51.344;6.152;2022-09-13T13:28:50;18.58;;;17.00;;
33270;SDS011;53180;51.344;6.152;2022-09-13T13:31:42;17.55;;;16.05;;
33270;SDS011;53180;51.344;6.152;2022-09-13T13:34:35;32.15;;;21.30;;
33270;SDS011;53180;51.344;6.152;2022-09-13T13:40:21;22.35;;;15.45;;
33270;SDS011;53180;51.344;6.152;2022-09-13T13:48:55;12.32;;;11.10;;
33270;SDS011;53180;51.344;6.152;2022-09-13T13:58:11;12.35;;;11.18;;
33270;SDS011;53180;51.344;6.152;2022-09-13T14:01:05;17.90;;;13.15;;
33270;SDS011;53180;51.344;6.152;2022-09-13T14:03:38;10.70;;;9.52;;
33270;SDS011;53180;51.344;6.152;2022-09-13T14:06:18;11.50;;;10.27;;
33270;SDS011;53180;51.344;6.152;2022-09-13T14:09:01;10.02;;;8.90;;
33270;SDS011;53180;51.344;6.152;2022-09-13T14:11:38;8.82;;;7.93;;
33270;SDS011;53180;51.344;6.152;2022-09-13T14:14:26;8.57;;;7.78;;
33270;SDS011;53180;51.344;6.152;2022-09-13T14:20:24;10.88;;;9.63;;
33270;SDS011;53180;51.344;6.152;2022-09-13T14:25:42;10.02;;;8.55;;
33270;SDS011;53180;51.344;6.152;2022-09-13T14:28:13;9.95;;;9.00;;
33270;SDS011;53180;51.344;6.152;2022-09-13T14:30:51;9.65;;;8.68;;
33270;SDS011;53180;51.344;6.152;2022-09-13T14:33:23;9.50;;;8.48;;
33270;SDS011;53180;51.344;6.152;2022-09-13T14:35:59;10.00;;;8.90;;
33270;SDS011;53180;51.344;6.152;2022-09-13T14:38:31;11.75;;;10.75;;
33270;SDS011;53180;51.344;6.152;2022-09-13T14:41:09;10.95;;;8.48;;
33270;SDS011;53180;51.344;6.152;2022-09-13T14:43:41;9.63;;;8.68;;
33270;SDS011;53180;51.344;6.152;2022-09-13T14:46:11;9.10;;;8.27;;
33270;SDS011;53180;51.344;6.152;2022-09-13T14:48:46;8.43;;;7.63;;
33270;SDS011;53180;51.344;6.152;2022-09-13T14:51:21;10.32;;;8.98;;
33270;SDS011;53180;51.344;6.152;2022-09-13T14:53:54;9.23;;;8.40;;
33270;SDS011;53180;51.344;6.152;2022-09-13T14:56:29;8.77;;;7.78;;
33270;SDS011;53180;51.344;6.152;2022-09-13T14:59:03;10.50;;;9.50;;
33270;SDS011;53180;51.344;6.152;2022-09-13T15:01:39;10.95;;;7.88;;
33270;SDS011;53180;51.344;6.152;2022-09-13T15:04:08;13.20;;;9.27;;
33270;SDS011;53180;51.344;6.152;2022-09-13T15:06:39;8.45;;;7.65;;
33270;SDS011;53180;51.344;6.152;2022-09-13T15:09:14;9.25;;;8.35;;
33270;SDS011;53180;51.344;6.152;2022-09-13T15:11:56;7.85;;;7.15;;
33270;SDS011;53180;51.344;6.152;2022-09-13T15:14:27;8.90;;;7.28;;
33270;SDS011;53180;51.344;6.152;2022-09-13T15:16:58;11.20;;;10.23;;
33270;SDS011;53180;51.344;6.152;2022-09-13T15:19:36;10.63;;;9.73;;
33270;SDS011;53180;51.344;6.152;2022-09-13T15:25:01;9.95;;;9.07;;
33270;SDS011;53180;51.344;6.152;2022-09-13T15:27:30;12.00;;;9.68;;
33270;SDS011;53180;51.344;6.152;2022-09-13T15:30:19;11.48;;;10.32;;
33270;SDS011;53180;51.344;6.152;2022-09-13T15:33:03;10.77;;;9.70;;
33270;SDS011;53180;51.344;6.152;2022-09-13T15:35:40;9.85;;;8.95;;
33270;SDS011;53180;51.344;6.152;2022-09-13T15:38:15;11.75;;;10.65;;
33270;SDS011;53180;51.344;6.152;2022-09-13T15:40:57;9.65;;;8.85;;
33270;SDS011;53180;51.344;6.152;2022-09-13T15:43:28;10.50;;;9.50;;
33270;SDS011;53180;51.344;6.152;2022-09-13T15:45:57;10.43;;;9.45;;
33270;SDS011;53180;51.344;6.152;2022-09-13T15:48:27;10.18;;;9.25;;
33270;SDS011;53180;51.344;6.152;2022-09-13T15:51:04;14.38;;;13.20;;
33270;SDS011;53180;51.344;6.152;2022-09-13T15:53:37;15.00;;;13.88;;
33270;SDS011;53180;51.344;6.152;2022-09-13T15:56:08;13.75;;;12.75;;
33270;SDS011;53180;51.344;6.152;2022-09-13T15:58:40;12.48;;;11.35;;
33270;SDS011;53180;51.344;6.152;2022-09-13T16:01:09;14.13;;;13.02;;
33270;SDS011;53180;51.344;6.152;2022-09-13T16:03:39;14.50;;;13.18;;
33270;SDS011;53180;51.344;6.152;2022-09-13T16:06:07;15.00;;;13.80;;
33270;SDS011;53180;51.344;6.152;2022-09-13T16:08:38;31.80;;;22.55;;
33270;SDS011;53180;51.344;6.152;2022-09-13T16:11:07;15.68;;;14.38;;
33270;SDS011;53180;51.344;6.152;2022-09-13T16:13:35;15.75;;;14.55;;
33270;SDS011;53180;51.344;6.152;2022-09-13T16:16:04;20.95;;;18.80;;
33270;SDS011;53180;51.344;6.152;2022-09-13T16:18:32;16.95;;;15.55;;
33270;SDS011;53180;51.344;6.152;2022-09-13T16:21:01;16.92;;;15.27;;
33270;SDS011;53180;51.344;6.152;2022-09-13T16:23:29;18.30;;;16.50;;
33270;SDS011;53180;51.344;6.152;2022-09-13T16:25:59;16.05;;;14.82;;
33270;SDS011;53180;51.344;6.152;2022-09-13T16:28:28;15.05;;;13.90;;
33270;SDS011;53180;51.344;6.152;2022-09-13T16:30:56;14.35;;;13.32;;
33270;SDS011;53180;51.344;6.152;2022-09-13T16:33:24;14.80;;;13.40;;